Time;durP1;ratioP1;P1;durP2;ratioP2;P2;SDS_P1;SDS_P2;PMS_P1;PMS_P2;Temp;Humidity;BMP_temperature;BMP_pressure;BME280_temperature;BME280_humidity;BME280_pressure;Samples;Min_cycle;Max_cycle;Signal;HPM_P1;HPM_P2
2020/12/20 00:01:25;;;;;;;10.07;6.43;;;3.60;99.90;;;;;;5012936;28;20210;-46
2020/12/20 00:03:53;;;;;;;8.85;7.70;;;3.50;99.90;;;;;;5012944;28;20197;-53
2020/12/20 00:06:20;;;;;;;10.65;5.30;;;3.50;99.90;;;;;;5012646;28;20706;-50
2020/12/20 00:08:48;;;;;;;8.65;6.20;;;3.50;99.90;;;;;;5012464;28;20222;-49
2020/12/20 00:11:15;;;;;;;7.30;5.38;;;3.40;99.90;;;;;;5012270;28;20609;-49
2020/12/20 00:13:42;;;;;;;7.47;4.30;;;3.40;99.90;;;;;;5012555;28;20274;-49
2020/12/20 00:16:09;;;;;;;14.30;6.75;;;3.40;99.90;;;;;;5012914;28;20209;-50
2020/12/20 00:18:36;;;;;;;7.53;5.57;;;3.40;99.90;;;;;;5013028;28;20662;-50
2020/12/20 00:21:03;;;;;;;8.07;7.03;;;3.40;99.90;;;;;;5012179;28;20195;-48
2020/12/20 00:23:30;;;;;;;9.07;6.88;;;3.40;99.90;;;;;;5013146;28;20186;-50
2020/12/20 00:25:59;;;;;;;10.13;6.68;;;3.40;99.90;;;;;;5012644;28;20216;-49
2020/12/20 00:28:26;;;;;;;13.57;5.20;;;3.40;99.90;;;;;;5012971;28;20220;-49
2020/12/20 00:30:53;;;;;;;10.10;7.20;;;3.40;99.90;;;;;;4995089;28;20265;-46
2020/12/20 00:33:20;;;;;;;8.50;6.03;;;3.40;99.90;;;;;;5013394;28;20182;-51
2020/12/20 00:35:48;;;;;;;10.55;6.15;;;3.30;99.90;;;;;;5013003;28;20210;-50
2020/12/20 00:38:15;;;;;;;13.50;7.80;;;3.30;99.90;;;;;;5012928;28;20205;-49
2020/12/20 00:40:42;;;;;;;10.05;5.88;;;3.20;99.90;;;;;;5012765;28;20194;-51
2020/12/20 00:43:10;;;;;;;9.77;6.43;;;3.20;99.90;;;;;;5012574;28;20209;-49
2020/12/20 00:45:37;;;;;;;11.38;7.75;;;3.30;99.90;;;;;;4994884;28;20213;-48
2020/12/20 00:48:04;;;;;;;12.15;7.30;;;3.30;99.90;;;;;;5012703;28;20601;-48
2020/12/20 00:50:31;;;;;;;6.03;4.82;;;3.40;99.90;;;;;;5012719;28;20206;-49
2020/12/20 00:52:58;;;;;;;11.07;5.97;;;3.40;99.90;;;;;;5013371;28;20546;-50
2020/12/20 00:55:25;;;;;;;12.05;6.53;;;3.40;99.90;;;;;;4994848;28;20297;-53
2020/12/20 00:57:52;;;;;;;12.13;7.47;;;3.40;99.90;;;;;;5013064;28;20237;-45
2020/12/20 01:03:17;;;;;;;11.05;5.63;;;3.50;99.90;;;;;;4916730;29;20681;-47
2020/12/20 01:05:45;;;;;;;8.57;6.57;;;3.50;99.90;;;;;;4908438;29;20221;-48
2020/12/20 01:08:12;;;;;;;14.18;6.10;;;3.50;99.90;;;;;;4921053;29;20193;-44
2020/12/20 01:10:40;;;;;;;10.23;8.80;;;3.50;99.90;;;;;;4920875;29;20219;-43
2020/12/20 01:13:07;;;;;;;10.88;6.60;;;3.50;99.90;;;;;;4920758;29;20740;-50
2020/12/20 01:15:37;;;;;;;6.80;5.20;;;3.40;99.90;;;;;;4921242;29;20716;-49
2020/12/20 01:18:04;;;;;;;7.90;5.13;;;3.40;99.90;;;;;;4921419;29;20272;-55
2020/12/20 01:20:32;;;;;;;9.45;4.68;;;3.40;99.90;;;;;;4938698;29;20260;-47
2020/12/20 01:23:00;;;;;;;13.77;9.50;;;3.40;99.90;;;;;;4921443;29;20818;-45
2020/12/20 01:25:27;;;;;;;8.18;6.30;;;3.40;99.90;;;;;;4921140;29;20249;-49
2020/12/20 01:28:05;;;;;;;5.63;5.10;;;3.40;99.90;;;;;;4921382;29;20267;-46
2020/12/20 01:30:38;;;;;;;14.35;8.07;;;3.30;99.90;;;;;;4921072;29;20189;-46
2020/12/20 01:33:05;;;;;;;23.42;7.57;;;3.20;99.90;;;;;;4920385;29;20201;-52
2020/12/20 01:35:40;;;;;;;10.80;6.18;;;3.30;99.90;;;;;;4920391;29;20215;-49
2020/12/20 01:38:07;;;;;;;8.90;5.90;;;3.30;99.90;;;;;;4920541;29;20188;-47
2020/12/20 01:40:35;;;;;;;16.77;8.15;;;3.30;99.90;;;;;;4920603;29;20268;-49
2020/12/20 01:43:02;;;;;;;6.95;6.25;;;3.20;99.90;;;;;;4920258;29;20613;-46
2020/12/20 01:45:34;;;;;;;8.60;6.25;;;3.20;99.90;;;;;;4920371;29;20212;-50
2020/12/20 01:48:04;;;;;;;12.82;8.20;;;3.20;99.90;;;;;;4937558;29;20630;-48
2020/12/20 01:50:37;;;;;;;7.70;5.32;;;3.20;99.90;;;;;;4920283;29;20208;-50
2020/12/20 01:53:06;;;;;;;14.80;6.45;;;3.20;99.90;;;;;;4920362;29;20189;-48
2020/12/20 01:55:33;;;;;;;12.75;5.65;;;3.20;99.90;;;;;;4920163;29;20716;-46
2020/12/20 01:58:04;;;;;;;9.93;5.50;;;3.20;99.90;;;;;;4920060;29;20196;-47
2020/12/20 02:00:39;;;;;;;15.05;9.55;;;3.20;99.90;;;;;;4919826;29;20200;-47
2020/12/20 02:03:25;;;;;;;10.02;6.68;;;3.20;99.90;;;;;;4937461;29;20236;-46
2020/12/20 02:05:55;;;;;;;11.20;6.07;;;3.20;99.90;;;;;;4920060;29;20220;-48
2020/12/20 02:08:25;;;;;;;8.30;5.50;;;3.20;99.90;;;;;;4920325;29;20193;-48
2020/12/20 02:11:09;;;;;;;10.13;6.97;;;3.10;99.90;;;;;;4920041;29;20225;-52
2020/12/20 02:13:42;;;;;;;11.85;5.28;;;3.10;99.90;;;;;;4919367;29;20203;-47
2020/12/20 02:16:11;;;;;;;12.80;7.78;;;3.10;99.90;;;;;;4919774;29;20645;-49
2020/12/20 02:18:39;;;;;;;7.90;5.53;;;3.10;99.90;;;;;;4919852;29;20204;-47
2020/12/20 02:21:11;;;;;;;12.68;7.00;;;3.10;99.90;;;;;;4919795;29;20220;-48
2020/12/20 02:23:43;;;;;;;8.48;6.28;;;3.10;99.90;;;;;;4919665;29;20665;-47
2020/12/20 02:26:13;;;;;;;6.60;5.90;;;3.10;99.90;;;;;;4919266;29;20234;-49
2020/12/20 02:28:41;;;;;;;12.13;6.45;;;3.10;99.90;;;;;;4936770;29;20219;-46
2020/12/20 02:31:13;;;;;;;11.70;9.07;;;3.00;99.90;;;;;;4919402;29;20221;-47
2020/12/20 02:33:40;;;;;;;7.32;5.70;;;3.10;99.90;;;;;;4920128;29;20268;-51
2020/12/20 02:36:09;;;;;;;8.82;5.10;;;3.10;99.90;;;;;;4937120;29;20215;-48
2020/12/20 02:38:39;;;;;;;9.85;8.48;;;3.10;99.90;;;;;;4919738;29;20616;-45
2020/12/20 02:41:15;;;;;;;6.80;6.15;;;3.20;99.90;;;;;;4919451;29;20196;-46
2020/12/20 02:43:43;;;;;;;11.25;6.97;;;3.20;99.90;;;;;;4918838;29;20237;-49
2020/12/20 02:46:16;;;;;;;10.30;7.00;;;3.20;99.90;;;;;;4919126;29;20311;-44
2020/12/20 02:48:58;;;;;;;9.00;7.15;;;3.10;99.90;;;;;;4919210;29;20239;-47
2020/12/20 02:51:26;;;;;;;10.27;7.32;;;3.10;99.90;;;;;;4919111;29;20193;-45
2020/12/20 02:53:53;;;;;;;7.18;5.93;;;3.10;99.90;;;;;;4919171;29;20188;-47
2020/12/20 02:56:31;;;;;;;9.25;5.30;;;3.10;99.90;;;;;;4918814;29;20262;-47
2020/12/20 02:59:00;;;;;;;11.15;6.88;;;3.10;99.90;;;;;;4918753;29;20215;-45
2020/12/20 03:01:27;;;;;;;12.18;9.00;;;3.10;99.90;;;;;;4918912;29;20297;-45
2020/12/20 03:03:55;;;;;;;9.75;6.68;;;3.20;99.90;;;;;;4919024;29;20207;-47
2020/12/20 03:06:22;;;;;;;11.88;8.25;;;3.20;99.90;;;;;;4935978;29;20205;-46
2020/12/20 03:08:57;;;;;;;9.20;5.40;;;3.10;99.90;;;;;;4918905;29;20685;-50
2020/12/20 03:11:24;;;;;;;12.27;8.68;;;3.30;99.90;;;;;;4935825;29;20206;-46
2020/12/20 03:13:51;;;;;;;13.23;6.68;;;3.30;99.90;;;;;;4919071;29;20672;-46
2020/12/20 03:16:18;;;;;;;11.43;7.63;;;3.30;99.90;;;;;;4935630;29;20205;-46
2020/12/20 03:18:46;;;;;;;13.00;8.18;;;3.30;99.90;;;;;;4934398;29;20288;-50
2020/12/20 03:21:13;;;;;;;10.02;7.28;;;3.40;99.90;;;;;;4918627;29;20196;-49
2020/12/20 03:24:02;;;;;;;8.18;5.57;;;3.40;99.90;;;;;;4935642;29;20184;-49
2020/12/20 03:26:48;;;;;;;13.07;9.45;;;3.40;99.90;;;;;;4935336;29;20234;-49
2020/12/20 03:29:35;;;;;;;12.15;6.32;;;3.30;99.90;;;;;;4896372;29;20708;-48
2020/12/20 03:32:22;;;;;;;11.95;7.70;;;3.30;99.90;;;;;;4935020;29;20196;-51
2020/12/20 03:35:01;;;;;;;17.85;8.68;;;3.30;99.90;;;;;;4935550;29;20176;-47
2020/12/20 03:37:38;;;;;;;9.35;6.10;;;3.20;99.90;;;;;;4918486;29;20200;-48
2020/12/20 03:40:12;;;;;;;16.17;8.15;;;3.20;99.90;;;;;;4918254;29;20208;-47
2020/12/20 03:42:40;;;;;;;13.15;7.72;;;3.20;99.90;;;;;;4917941;29;20207;-49
2020/12/20 03:45:07;;;;;;;13.25;6.43;;;3.10;99.90;;;;;;4918293;29;20740;-45
2020/12/20 03:47:34;;;;;;;11.88;7.32;;;3.10;99.90;;;;;;4918203;29;20223;-47
2020/12/20 03:50:03;;;;;;;12.68;7.25;;;3.10;99.90;;;;;;4918262;29;20397;-52
2020/12/20 03:52:31;;;;;;;7.28;5.45;;;3.10;99.90;;;;;;4918104;29;20196;-47
2020/12/20 03:55:05;;;;;;;14.98;7.78;;;3.10;99.90;;;;;;4917868;29;20208;-47
2020/12/20 03:57:34;;;;;;;13.38;8.82;;;3.10;99.90;;;;;;4933930;29;20221;-47
2020/12/20 04:00:03;;;;;;;11.35;5.75;;;3.10;99.90;;;;;;4918019;29;20177;-48
2020/12/20 04:02:41;;;;;;;4.90;4.45;;;3.20;99.90;;;;;;4935115;29;20196;-46
2020/12/20 04:05:13;;;;;;;13.38;7.93;;;3.30;99.90;;;;;;4918263;29;20192;-47
2020/12/20 04:07:43;;;;;;;9.75;6.90;;;3.30;99.90;;;;;;4918166;29;20196;-49
2020/12/20 04:10:11;;;;;;;11.10;5.88;;;3.30;99.90;;;;;;4918333;29;20756;-53
2020/12/20 04:12:39;;;;;;;19.25;7.93;;;3.30;99.90;;;;;;4918357;29;20608;-46
2020/12/20 04:15:09;;;;;;;9.15;5.85;;;3.30;99.90;;;;;;4918560;29;20217;-49
2020/12/20 04:17:36;;;;;;;10.80;5.20;;;3.40;99.90;;;;;;4933505;29;20248;-46
2020/12/20 04:20:04;;;;;;;10.88;6.95;;;3.30;99.90;;;;;;4917908;29;20220;-47
2020/12/20 04:22:46;;;;;;;11.57;9.27;;;3.30;99.90;;;;;;4917922;29;20564;-45
2020/12/20 04:25:25;;;;;;;7.05;4.85;;;3.20;99.90;;;;;;4934751;29;20216;-47
2020/12/20 04:28:12;;;;;;;12.18;6.65;;;3.20;99.90;;;;;;4935226;29;20660;-45
2020/12/20 04:30:40;;;;;;;11.32;7.22;;;3.10;99.90;;;;;;4917608;29;20239;-45
2020/12/20 04:33:14;;;;;;;9.48;6.45;;;3.00;99.90;;;;;;4917849;29;20508;-46
2020/12/20 04:35:43;;;;;;;9.02;5.55;;;2.90;99.90;;;;;;4917521;29;20224;-49
2020/12/20 04:38:11;;;;;;;9.68;6.40;;;2.90;99.90;;;;;;4921432;29;20193;-44
2020/12/20 04:40:42;;;;;;;9.38;5.70;;;2.90;99.90;;;;;;4921522;29;20196;-47
2020/12/20 04:43:12;;;;;;;6.45;4.85;;;2.80;99.90;;;;;;4921384;29;20244;-43
2020/12/20 04:45:44;;;;;;;12.00;5.88;;;2.80;99.90;;;;;;4921412;29;20627;-45
2020/12/20 04:48:20;;;;;;;9.25;5.88;;;2.70;99.90;;;;;;4921336;29;20198;-50
2020/12/20 04:50:58;;;;;;;10.15;6.18;;;2.70;99.90;;;;;;4921693;29;20212;-51
2020/12/20 04:53:27;;;;;;;12.82;8.00;;;2.70;99.90;;;;;;4922252;29;20224;-49
2020/12/20 04:56:03;;;;;;;9.07;6.43;;;2.60;99.90;;;;;;4921474;29;20216;-51
2020/12/20 04:58:49;;;;;;;12.88;8.32;;;2.60;99.90;;;;;;4921167;29;20232;-49
2020/12/20 05:01:19;;;;;;;15.43;8.82;;;2.50;99.90;;;;;;4920863;29;20208;-50
2020/12/20 05:03:46;;;;;;;12.52;7.95;;;2.50;99.90;;;;;;4921063;29;20280;-48
2020/12/20 05:06:15;;;;;;;15.10;7.13;;;2.50;99.90;;;;;;4921514;29;20213;-45
2020/12/20 05:08:46;;;;;;;11.10;8.65;;;2.40;99.90;;;;;;4921873;29;20310;-46
2020/12/20 05:11:32;;;;;;;14.07;10.07;;;2.40;99.90;;;;;;4921349;29;20279;-47
2020/12/20 05:14:04;;;;;;;13.73;8.27;;;2.50;99.90;;;;;;4921431;29;20205;-47
2020/12/20 05:16:35;;;;;;;10.02;5.35;;;2.50;99.90;;;;;;4936897;29;20228;-46
2020/12/20 05:19:15;;;;;;;14.75;7.28;;;2.60;99.90;;;;;;4921421;29;20196;-46
2020/12/20 05:21:47;;;;;;;13.57;7.35;;;2.60;99.90;;;;;;4921581;29;20200;-50
2020/12/20 05:24:27;;;;;;;14.93;7.40;;;2.60;99.90;;;;;;4921448;29;20570;-51
2020/12/20 05:26:56;;;;;;;9.45;6.88;;;2.70;99.90;;;;;;4921016;29;20220;-49
2020/12/20 05:29:28;;;;;;;14.07;8.43;;;2.70;99.90;;;;;;4921384;29;20592;-48
2020/12/20 05:32:00;;;;;;;9.05;7.65;;;2.70;99.90;;;;;;4921363;29;20298;-52
2020/12/20 05:34:37;;;;;;;10.40;6.25;;;2.80;99.90;;;;;;4923055;29;20204;-49
2020/12/20 05:37:08;;;;;;;8.13;5.95;;;2.70;99.90;;;;;;4937738;29;20220;-47
2020/12/20 05:39:56;;;;;;;16.48;7.97;;;2.80;99.90;;;;;;4921430;29;20192;-45
2020/12/20 05:42:38;;;;;;;13.40;8.07;;;2.70;99.90;;;;;;4921430;29;20605;-48
2020/12/20 05:45:17;;;;;;;11.48;8.73;;;2.70;99.90;;;;;;4920882;29;20193;-45
2020/12/20 05:47:57;;;;;;;8.77;6.03;;;2.70;99.90;;;;;;4934487;29;20533;-48
2020/12/20 05:50:28;;;;;;;14.95;8.35;;;2.70;99.90;;;;;;4920079;29;20631;-46
2020/12/20 05:53:04;;;;;;;8.60;7.03;;;2.70;99.90;;;;;;4920022;29;20650;-45
2020/12/20 05:55:38;;;;;;;13.18;7.22;;;2.70;99.90;;;;;;4936982;29;20208;-46
2020/12/20 05:58:13;;;;;;;12.63;6.82;;;2.70;99.90;;;;;;4937149;29;20177;-45
2020/12/20 06:00:47;;;;;;;14.13;8.50;;;2.60;99.90;;;;;;4936791;29;20188;-45
2020/12/20 06:03:15;;;;;;;12.32;8.13;;;2.60;99.90;;;;;;4937105;29;20652;-43
2020/12/20 06:05:44;;;;;;;13.93;9.18;;;2.60;99.90;;;;;;4937137;29;20303;-44
2020/12/20 06:08:13;;;;;;;15.52;8.52;;;2.60;99.90;;;;;;4936821;29;20192;-44
2020/12/20 06:10:42;;;;;;;8.70;6.05;;;2.50;99.90;;;;;;4936933;29;20220;-45
2020/12/20 06:13:11;;;;;;;9.98;7.35;;;2.40;99.90;;;;;;4937189;29;20197;-44
2020/12/20 06:15:42;;;;;;;11.10;6.70;;;2.40;99.90;;;;;;4936757;29;20706;-47
2020/12/20 06:18:13;;;;;;;11.13;9.07;;;2.40;99.90;;;;;;4936770;29;20180;-46
2020/12/20 06:20:51;;;;;;;19.08;7.30;;;2.40;99.90;;;;;;4936924;29;20169;-48
2020/12/20 06:23:20;;;;;;;10.63;6.80;;;2.30;99.90;;;;;;4936923;29;20199;-51
2020/12/20 06:25:48;;;;;;;8.75;7.05;;;2.20;99.90;;;;;;4937039;29;20232;-51
2020/12/20 06:28:18;;;;;;;10.40;9.23;;;2.20;99.90;;;;;;4936308;29;20200;-45
2020/12/20 06:30:45;;;;;;;11.05;7.68;;;2.20;99.90;;;;;;4936791;29;20205;-49
2020/12/20 06:33:20;;;;;;;10.75;8.20;;;2.10;99.90;;;;;;4937058;29;20185;-47
2020/12/20 06:35:50;;;;;;;14.88;8.77;;;2.10;99.90;;;;;;4936812;29;20216;-47
2020/12/20 06:38:23;;;;;;;13.07;8.00;;;2.10;99.90;;;;;;4936544;29;20189;-48
2020/12/20 06:40:51;;;;;;;8.50;6.50;;;2.10;99.90;;;;;;4936555;29;20188;-48
2020/12/20 06:43:29;;;;;;;12.35;8.30;;;2.00;99.90;;;;;;4936570;29;20655;-48
2020/12/20 06:45:57;;;;;;;15.60;9.55;;;2.00;99.90;;;;;;4936125;29;20329;-49
2020/12/20 06:48:33;;;;;;;8.88;7.18;;;2.00;99.90;;;;;;4936224;29;20592;-49
2020/12/20 06:51:01;;;;;;;11.43;8.57;;;2.00;99.90;;;;;;4936286;29;20200;-49
2020/12/20 06:53:49;;;;;;;8.02;5.15;;;1.90;99.90;;;;;;4936135;29;20193;-48
2020/12/20 06:56:18;;;;;;;14.68;7.43;;;2.00;99.90;;;;;;4936192;29;20216;-48
2020/12/20 06:58:47;;;;;;;11.27;8.15;;;2.00;99.90;;;;;;4936066;29;20181;-46
2020/12/20 07:01:39;;;;;;;11.88;6.55;;;1.90;99.90;;;;;;5032719;23;20225;-45
2020/12/20 07:04:14;;;;;;;10.30;6.55;;;1.90;99.90;;;;;;4993761;28;20568;-45
2020/12/20 07:06:42;;;;;;;16.05;7.75;;;1.90;99.90;;;;;;5028536;28;20302;-45
2020/12/20 07:09:09;;;;;;;8.60;6.70;;;2.00;99.90;;;;;;5033368;28;20589;-45
2020/12/20 07:11:47;;;;;;;16.58;12.10;;;2.00;99.90;;;;;;5033901;28;20189;-45
2020/12/20 07:14:19;;;;;;;14.25;10.48;;;2.00;99.90;;;;;;5034748;28;20356;-44
2020/12/20 07:16:46;;;;;;;13.43;10.40;;;2.00;99.90;;;;;;5032945;28;20223;-44
2020/12/20 07:19:21;;;;;;;13.02;9.10;;;2.10;99.90;;;;;;5032710;28;20189;-55
2020/12/20 07:22:07;;;;;;;20.65;9.52;;;2.10;99.90;;;;;;5034628;28;20173;-49
2020/12/20 07:24:36;;;;;;;8.73;7.00;;;2.10;99.90;;;;;;5035554;28;20209;-46
2020/12/20 07:27:05;;;;;;;11.35;8.05;;;2.10;99.90;;;;;;5030150;28;20206;-45
2020/12/20 07:29:34;;;;;;;13.55;7.80;;;2.10;99.90;;;;;;5015024;28;20213;-48
2020/12/20 07:32:03;;;;;;;11.80;8.00;;;2.10;99.90;;;;;;5014996;28;20190;-45
2020/12/20 07:34:32;;;;;;;11.95;9.60;;;2.20;99.90;;;;;;5029699;28;20182;-44
2020/12/20 07:36:59;;;;;;;15.70;8.95;;;2.10;99.90;;;;;;5036097;28;20220;-43
2020/12/20 07:39:26;;;;;;;12.30;6.78;;;2.10;99.90;;;;;;5034797;28;20649;-49
2020/12/20 07:41:57;;;;;;;10.95;7.65;;;2.10;99.90;;;;;;5031917;28;20182;-45
2020/12/20 07:44:32;;;;;;;15.50;8.60;;;2.10;99.90;;;;;;5031313;28;20173;-55
2020/12/20 07:47:08;;;;;;;12.35;6.80;;;2.10;99.90;;;;;;5031077;28;20228;-45
2020/12/20 07:49:36;;;;;;;16.30;10.52;;;2.20;99.90;;;;;;5031238;28;20685;-42
2020/12/20 07:52:08;;;;;;;14.93;12.32;;;2.20;99.90;;;;;;5031567;28;20189;-45
2020/12/20 07:54:35;;;;;;;15.35;6.35;;;2.30;99.90;;;;;;5031181;28;20177;-50
2020/12/20 07:57:05;;;;;;;13.35;8.82;;;2.30;99.90;;;;;;5013092;28;20284;-49
2020/12/20 07:59:32;;;;;;;14.13;9.07;;;2.30;99.90;;;;;;5031614;28;20193;-44
2020/12/20 08:01:59;;;;;;;14.30;8.55;;;2.30;99.90;;;;;;5030599;28;20686;-46
2020/12/20 08:04:26;;;;;;;15.02;8.70;;;2.40;99.90;;;;;;5030941;28;20200;-42
2020/12/20 08:06:54;;;;;;;15.30;9.35;;;2.40;99.90;;;;;;5013353;28;20670;-46
2020/12/20 08:09:24;;;;;;;16.65;9.93;;;2.40;99.90;;;;;;5031154;28;20666;-42
2020/12/20 08:11:53;;;;;;;13.80;9.45;;;2.40;99.90;;;;;;5034848;28;20280;-55
2020/12/20 08:14:21;;;;;;;13.82;9.88;;;2.50;99.90;;;;;;5020281;28;20563;-44
2020/12/20 08:16:50;;;;;;;17.67;9.55;;;2.60;99.90;;;;;;5037661;28;20249;-42
2020/12/20 08:19:20;;;;;;;19.75;9.93;;;2.60;99.90;;;;;;5038285;28;20192;-43
2020/12/20 08:22:03;;;;;;;10.48;8.98;;;2.60;99.90;;;;;;5038983;28;20225;-52
2020/12/20 08:24:32;;;;;;;17.92;9.48;;;2.60;99.90;;;;;;5039100;28;20178;-42
2020/12/20 08:27:10;;;;;;;11.90;10.45;;;2.70;99.90;;;;;;5039057;28;20212;-52
2020/12/20 08:29:38;;;;;;;16.27;9.00;;;2.60;99.90;;;;;;5038435;28;20173;-47
2020/12/20 08:32:11;;;;;;;18.83;11.02;;;2.70;99.90;;;;;;5038466;28;20209;-51
2020/12/20 08:34:38;;;;;;;13.30;9.80;;;2.70;99.90;;;;;;5039120;28;20181;-45
2020/12/20 08:37:11;;;;;;;16.15;8.98;;;2.70;99.90;;;;;;5038444;28;20213;-56
2020/12/20 08:39:39;;;;;;;12.98;8.48;;;2.80;99.90;;;;;;5037703;28;20203;-44
2020/12/20 08:42:07;;;;;;;14.13;9.27;;;2.80;99.90;;;;;;5037383;28;20209;-46
2020/12/20 08:44:35;;;;;;;12.07;7.78;;;2.90;99.90;;;;;;5020748;28;20197;-45
2020/12/20 08:47:09;;;;;;;14.30;7.97;;;2.90;99.90;;;;;;5037211;28;20331;-45
2020/12/20 08:49:36;;;;;;;14.38;10.43;;;3.00;99.90;;;;;;5037065;28;20177;-49
2020/12/20 08:52:09;;;;;;;15.45;9.27;;;3.10;99.90;;;;;;5037152;28;20189;-44
2020/12/20 08:54:37;;;;;;;10.05;7.43;;;3.20;99.90;;;;;;5037525;28;20181;-54
2020/12/20 08:57:07;;;;;;;11.65;7.25;;;3.20;99.90;;;;;;5037693;28;20232;-43
2020/12/20 08:59:37;;;;;;;15.77;14.13;;;3.30;99.90;;;;;;5037169;28;20193;-55
2020/12/20 09:02:05;;;;;;;17.33;9.02;;;3.30;99.90;;;;;;5036880;28;20228;-50
2020/12/20 09:04:34;;;;;;;12.10;9.32;;;3.40;99.90;;;;;;5037621;28;20662;-47
2020/12/20 09:07:05;;;;;;;18.70;9.65;;;3.40;99.90;;;;;;5036998;28;20213;-44
2020/12/20 09:09:32;;;;;;;24.20;11.02;;;3.50;99.90;;;;;;5037310;28;20228;-41
2020/12/20 09:12:20;;;;;;;14.82;9.30;;;3.60;99.90;;;;;;5037238;28;20236;-42
2020/12/20 09:15:06;;;;;;;14.75;8.93;;;3.60;99.90;;;;;;5037787;28;20178;-44
2020/12/20 09:17:36;;;;;;;15.25;9.80;;;3.70;99.90;;;;;;5037018;28;20731;-45
2020/12/20 09:20:05;;;;;;;8.98;5.93;;;3.70;99.90;;;;;;5037496;28;20239;-49
2020/12/20 09:22:52;;;;;;;13.60;7.85;;;3.90;99.90;;;;;;5035783;28;20681;-49
2020/12/20 09:25:32;;;;;;;11.38;8.82;;;4.00;99.90;;;;;;5035557;28;20209;-50
2020/12/20 09:28:03;;;;;;;16.05;7.35;;;4.00;99.90;;;;;;5036584;28;20208;-48
2020/12/20 09:30:39;;;;;;;13.02;10.13;;;4.00;99.90;;;;;;5036200;28;20193;-48
2020/12/20 09:33:24;;;;;;;11.98;7.95;;;4.00;99.90;;;;;;5017998;28;20211;-51
2020/12/20 09:36:00;;;;;;;11.25;8.40;;;4.00;99.90;;;;;;5036580;28;20209;-45
2020/12/20 09:38:29;;;;;;;10.95;6.80;;;4.10;99.90;;;;;;5035793;28;20615;-43
2020/12/20 09:40:58;;;;;;;11.77;8.95;;;4.20;99.90;;;;;;5035921;28;20228;-52
2020/12/20 09:43:26;;;;;;;16.27;8.50;;;4.30;99.90;;;;;;5035682;28;20190;-46
2020/12/20 09:45:53;;;;;;;13.68;9.15;;;4.30;99.90;;;;;;5035208;28;20248;-49
2020/12/20 09:48:20;;;;;;;10.80;7.43;;;4.30;99.90;;;;;;5017453;28;20204;-48
2020/12/20 09:50:47;;;;;;;9.88;8.73;;;4.30;99.90;;;;;;5035670;28;20198;-49
2020/12/20 09:53:14;;;;;;;12.45;9.23;;;4.30;99.90;;;;;;5035758;28;20269;-47
2020/12/20 09:55:42;;;;;;;12.95;8.60;;;4.30;99.90;;;;;;5035034;28;20208;-49
2020/12/20 09:58:10;;;;;;;14.27;9.60;;;4.40;99.90;;;;;;5034757;28;20199;-47
2020/12/20 10:00:38;;;;;;;14.15;10.13;;;4.50;99.90;;;;;;5035326;28;20275;-44
2020/12/20 10:03:06;;;;;;;12.60;7.90;;;4.50;99.90;;;;;;5016995;28;20296;-43
2020/12/20 10:05:34;;;;;;;11.45;6.03;;;4.60;99.90;;;;;;5034926;28;20690;-49
2020/12/20 10:08:01;;;;;;;13.38;6.88;;;4.60;99.90;;;;;;5034837;28;20189;-53
2020/12/20 10:10:29;;;;;;;11.32;6.55;;;4.80;99.90;;;;;;5035387;28;20198;-49
2020/12/20 10:12:56;;;;;;;10.02;5.95;;;4.90;99.90;;;;;;5035713;28;20193;-51
2020/12/20 10:15:25;;;;;;;23.15;11.57;;;5.10;99.90;;;;;;5035253;28;20308;-47
2020/12/20 10:17:53;;;;;;;11.25;6.57;;;5.30;99.90;;;;;;5035687;28;20236;-46
2020/12/20 10:20:20;;;;;;;10.68;8.98;;;5.40;99.90;;;;;;5036502;28;20528;-49
2020/12/20 10:22:47;;;;;;;14.80;8.15;;;5.50;99.90;;;;;;5035013;28;20192;-54
2020/12/20 10:25:16;;;;;;;11.60;8.32;;;5.60;99.90;;;;;;5034889;28;20185;-50
2020/12/20 10:27:44;;;;;;;14.02;8.95;;;5.60;99.90;;;;;;5035918;28;20672;-48
2020/12/20 10:30:13;;;;;;;15.68;8.95;;;5.80;99.90;;;;;;5034661;28;20201;-52
2020/12/20 10:32:42;;;;;;;8.77;5.88;;;6.00;99.90;;;;;;5034162;28;20196;-51
2020/12/20 10:35:10;;;;;;;8.35;6.57;;;6.00;99.90;;;;;;5033584;28;20178;-48
2020/12/20 10:37:37;;;;;;;14.20;9.02;;;6.10;99.90;;;;;;5034561;28;20196;-52
2020/12/20 10:40:04;;;;;;;12.82;8.25;;;6.40;99.90;;;;;;5033902;28;20239;-47
2020/12/20 10:42:31;;;;;;;15.55;9.05;;;6.30;99.90;;;;;;5034044;28;20605;-51
2020/12/20 10:44:58;;;;;;;8.82;7.30;;;6.10;99.90;;;;;;5033802;28;20201;-48
2020/12/20 10:47:26;;;;;;;10.63;8.32;;;6.00;99.90;;;;;;5033919;28;20291;-52
2020/12/20 10:49:53;;;;;;;10.75;7.03;;;6.10;99.90;;;;;;5033689;28;20190;-51
2020/12/20 10:52:21;;;;;;;13.20;6.93;;;6.20;99.90;;;;;;5033494;28;20247;-49
2020/12/20 10:54:48;;;;;;;9.60;6.15;;;6.20;99.90;;;;;;5033580;28;20186;-50
2020/12/20 10:57:15;;;;;;;13.93;9.07;;;6.20;99.90;;;;;;5033647;28;20209;-48
2020/12/20 10:59:42;;;;;;;10.77;7.68;;;6.10;99.90;;;;;;5033747;28;20182;-48
2020/12/20 11:02:09;;;;;;;12.48;8.23;;;6.10;99.90;;;;;;5032786;28;20204;-49
2020/12/20 11:04:37;;;;;;;12.70;7.63;;;6.00;99.90;;;;;;5033335;28;20228;-48
2020/12/20 11:07:05;;;;;;;9.30;7.00;;;5.90;99.90;;;;;;5033183;28;20222;-45
2020/12/20 11:09:33;;;;;;;11.30;7.35;;;5.90;99.90;;;;;;5032982;28;20196;-49
2020/12/20 11:12:00;;;;;;;11.63;7.22;;;5.80;99.90;;;;;;5032525;28;20209;-49
2020/12/20 11:14:27;;;;;;;10.63;6.93;;;5.70;99.90;;;;;;5032376;28;20252;-52
2020/12/20 11:16:55;;;;;;;11.65;7.05;;;5.80;99.90;;;;;;5032770;28;20211;-51
2020/12/20 11:19:22;;;;;;;7.68;6.90;;;5.80;99.90;;;;;;5032730;28;20618;-51
2020/12/20 11:21:50;;;;;;;14.48;7.80;;;5.80;99.90;;;;;;5032754;28;20181;-50
2020/12/20 11:24:17;;;;;;;13.07;6.45;;;5.90;99.90;;;;;;5032353;28;20249;-54
2020/12/20 11:26:48;;;;;;;11.25;7.55;;;5.90;99.90;;;;;;5031746;28;20654;-49
2020/12/20 11:29:16;;;;;;;8.88;5.40;;;5.90;99.90;;;;;;5031613;28;20205;-43
2020/12/20 11:31:44;;;;;;;8.60;5.50;;;6.00;99.90;;;;;;5030828;28;20247;-52
2020/12/20 11:34:11;;;;;;;11.27;8.50;;;5.90;99.90;;;;;;5030946;28;20201;-43
2020/12/20 11:36:40;;;;;;;18.02;7.78;;;6.00;99.90;;;;;;5031924;28;20213;-54
2020/12/20 11:39:08;;;;;;;11.70;7.22;;;6.10;99.90;;;;;;5031465;28;20272;-58
2020/12/20 11:41:36;;;;;;;10.00;6.90;;;6.10;99.90;;;;;;5031413;28;20185;-50
2020/12/20 11:44:05;;;;;;;14.50;6.53;;;6.00;99.90;;;;;;5031349;28;20718;-44
2020/12/20 11:46:32;;;;;;;9.00;5.78;;;6.10;99.90;;;;;;5016385;28;20246;-48
2020/12/20 11:49:00;;;;;;;10.60;6.15;;;6.20;99.90;;;;;;5027338;28;20189;-55
2020/12/20 11:51:27;;;;;;;12.30;8.35;;;6.00;99.90;;;;;;5031267;28;20228;-42
2020/12/20 11:53:55;;;;;;;11.55;6.35;;;6.00;99.90;;;;;;5029998;28;20601;-47
2020/12/20 11:56:22;;;;;;;8.35;5.60;;;6.00;99.90;;;;;;5011366;28;20274;-56
2020/12/20 11:58:49;;;;;;;12.38;7.60;;;6.10;99.90;;;;;;5011405;28;20265;-43
2020/12/20 12:01:21;;;;;;;6.97;5.25;;;6.10;99.90;;;;;;5024484;28;20197;-51
2020/12/20 12:03:49;;;;;;;10.50;6.65;;;6.20;99.90;;;;;;5033627;28;20177;-50
2020/12/20 12:06:17;;;;;;;6.70;5.95;;;6.20;99.90;;;;;;5032487;28;20205;-52
2020/12/20 12:08:45;;;;;;;8.32;6.60;;;6.20;99.90;;;;;;5032504;28;20204;-46
2020/12/20 12:11:17;;;;;;;11.40;6.72;;;6.10;99.90;;;;;;5016063;28;20776;-49
2020/12/20 12:13:45;;;;;;;15.40;7.30;;;6.20;99.90;;;;;;5033747;28;20664;-48
2020/12/20 12:16:15;;;;;;;9.60;7.05;;;6.20;99.90;;;;;;5032414;28;20209;-52
2020/12/20 12:18:44;;;;;;;11.45;7.00;;;6.30;99.90;;;;;;5032007;28;20177;-51
2020/12/20 12:21:12;;;;;;;12.13;6.22;;;6.30;99.90;;;;;;5013932;28;20590;-47
2020/12/20 12:23:43;;;;;;;8.70;5.63;;;6.40;99.90;;;;;;5031453;28;20189;-46
2020/12/20 12:26:11;;;;;;;7.72;5.85;;;6.30;99.90;;;;;;5034503;28;20628;-44
2020/12/20 12:28:39;;;;;;;9.10;6.55;;;6.40;99.90;;;;;;5016399;28;20205;-45
2020/12/20 12:31:06;;;;;;;8.32;7.13;;;6.50;99.90;;;;;;5003933;28;20241;-44
2020/12/20 12:33:34;;;;;;;10.75;6.40;;;6.60;99.90;;;;;;5013160;28;20562;-43
2020/12/20 12:36:05;;;;;;;10.00;6.90;;;6.80;99.90;;;;;;5032903;28;20746;-45
2020/12/20 12:38:32;;;;;;;13.00;7.70;;;6.80;99.90;;;;;;5033428;28;20611;-42
2020/12/20 12:41:00;;;;;;;13.88;7.55;;;6.70;99.90;;;;;;5031680;28;20170;-42
2020/12/20 12:43:27;;;;;;;10.52;5.57;;;6.70;99.90;;;;;;5031474;28;20189;-52
2020/12/20 12:45:54;;;;;;;9.07;6.72;;;6.60;99.90;;;;;;5031506;28;20209;-44
2020/12/20 12:48:21;;;;;;;11.57;7.00;;;6.50;99.90;;;;;;5031687;28;20265;-51
2020/12/20 12:50:48;;;;;;;9.80;7.53;;;6.50;99.90;;;;;;5031693;28;20209;-44
2020/12/20 12:53:16;;;;;;;8.32;6.57;;;6.50;99.90;;;;;;5031505;28;20189;-52
2020/12/20 12:55:43;;;;;;;9.55;7.38;;;6.40;99.90;;;;;;5031551;28;20209;-56
2020/12/20 12:58:10;;;;;;;7.63;5.57;;;6.50;99.90;;;;;;5034306;28;20192;-43
2020/12/20 13:00:39;;;;;;;9.35;6.28;;;6.50;99.90;;;;;;5035804;28;20495;-46
2020/12/20 13:03:10;;;;;;;7.90;7.05;;;6.60;99.90;;;;;;5062814;23;20571;-77
2020/12/20 13:05:40;;;;;;;8.98;6.07;;;6.70;99.90;;;;;;5036511;28;20240;-76
2020/12/20 13:08:09;;;;;;;6.60;5.85;;;6.70;99.90;;;;;;5037462;28;20174;-77
2020/12/20 13:10:37;;;;;;;8.10;6.05;;;6.70;99.90;;;;;;5037605;28;20201;-77